Tiempo atmosférico en la estación meteorológica de Azpeitia, Gipuzkoa (180 m.)



Fecha
DESCASC
Temp. máxima en grados centígrados (hora)
DESCASC
Temp. mínima en grados centígrados (hora)
DESCASC
Temp. media en grados centígrados
DESCASC
Racha de viento máxima en m/sg (hora)
DESCASC
Velocidad máxima media en intervalos de 10 minutos(hora)
DESCASC
Precipitaciones diarias en mm
DESCASC
Precipitaciones de 00:00 a 06:00 en mm
DESCASC
Precipitaciones de 06:00 a 12:00 en mm
DESCASC
Precipitaciones de 12:00 a 18:00 en mm
DESCASC
Precipitaciones de 18:00 a 24:00 en mm
DESCASC
17-02-2019 20 (14:00) 12.9 (08:40) 16.4 9.72 (13:20) 4.44 (12:50) 0 0 0 0 0
16-02-2019 19.1 (14:30) 5.6 (05:50) 12.4 10.28 (19:40) 3.33 (18:50) 0 0 0 0 0
15-02-2019 20.1 (16:00) 7.2 (23:59) 13.7 8.33 (10:30) 3.61 (10:30) 0 0 0 0 0
14-02-2019 18.2 (15:40) 6.8 (00:00) 12.5 8.33 (11:20) 3.33 (10:10) 0 0 0 0 0
13-02-2019 18.2 (15:50) 1 (00:00) 9.6 5.28 (15:10) 1.67 (14:30) 0 0 0 0 0
12-02-2019 12.9 (14:20) 3.7 (00:00) 8.3 4.72 (16:00) 1.67 (16:00) 0.2 0 0.2 0 0
11-02-2019 10.1 (14:50) 5.7 (00:00) 7.9 7.22 (04:00) 3.61 (04:00) 5.2 0.6 2.2 2 0.4
10-02-2019 14.5 (00:00) 6.9 (00:00) 10.7 13.89 (05:30) 4.17 (02:50) 3 0 0.8 2.2 0
09-02-2019 17.8 (15:30) 6.5 (00:00) 12.1 11.11 (23:40) 3.06 (23:59) 0 0 0 0 0
08-02-2019 17.5 (15:10) 2.6 (00:00) 10 6.39 (18:00) 2.78 (13:50) 0 0 0 0 0
07-02-2019 11.3 (14:10) 4.4 (00:00) 7.9 7.5 (12:30) 2.78 (13:20) 0 0 0 0 0
06-02-2019 19.1 (15:40) 7.8 (00:00) 13.5 2.78 (17:40) 1.67 (18:20) 0 0 0 0 0
05-02-2019 13.2 (15:30) 7 (00:00) 10.1 3.33 (17:00) 1.67 (14:10) 0.6 0.6 0 0 0
04-02-2019 10.8 (15:10) 0.2 (00:00) 5.5 3.33 (04:00) 1.67 (17:10) 2 0.2 0 0.4 1.4
03-02-2019 7.2 (14:20) 2.7 (00:00) 4.9 12.22 (09:20) 5.56 (09:20) 8.2 2 2 4 0.2
02-02-2019 8.3 (14:40) 4.1 (00:00) 6.2 -- (--) -- (--) 41.6 13.6 22.4 5.4 0.2
01-02-2019 11.6 (14:50) 4.3 (00:00) 8 12.78 (13:20) 5.28 (17:40) 6.8 1 0.2 5.2 0.4
31-01-2019 16.2 (15:50) 6.4 (00:00) 11.3 11.67 (17:50) 4.17 (18:00) 31 3.2 6.8 0.6 20.4
30-01-2019 10 (15:40) 4 (00:00) 7 9.44 (00:20) 4.17 (01:40) 21.6 11.2 8.6 0 1.8
29-01-2019 9.6 (16:00) 5.9 (00:00) 7.8 18.06 (17:00) 5.83 (21:50) 16 3.8 0.6 8.2 3.4
28-01-2019 10.6 (14:20) 6.1 (00:00) 8.4 17.5 (13:30) 7.22 (09:30) 29.6 6 13.4 4.6 5.6
27-01-2019 9.1 (06:10) 4.6 (00:00) 6.9 16.11 (06:50) 6.94 (14:00) 19.2 0.8 5.6 6.2 6.6
26-01-2019 13.7 (15:30) 4.9 (00:00) 9.3 4.17 (18:00) 1.67 (18:00) 0.2 0.2 0 0 0
25-01-2019 10.5 (14:40) 5.6 (00:00) 8 10.28 (04:10) 3.61 (14:20) 18.8 7 8.8 1 2
24-01-2019 7 (00:10) 4.5 (00:00) 5.8 12.78 (02:10) 4.44 (02:10) 53.8 31.2 13.2 4.8 4.6
23-01-2019 10.5 (07:40) 5.1 (00:00) 7.8 17.22 (07:40) 7.22 (07:40) 77 13.8 15.6 18.8 28.8
22-01-2019 6.6 (17:10) 2.7 (00:00) 4.6 9.17 (14:10) 3.06 (15:30) 25.6 0 2.4 11.6 11.6
21-01-2019 8.1 (15:20) 4.3 (00:00) 6.2 8.06 (11:30) 3.33 (11:30) 9.8 9 0.6 0.2 0
20-01-2019 9.9 (16:00) 6.2 (00:00) 8 11.11 (18:40) 3.89 (13:30) 20 0.2 9.2 4.8 5.8
19-01-2019 10.7 (14:40) 3.4 (00:00) 7 5.83 (14:50) 1.94 (14:20) 1.8 1.8 0 0 0

Gráficas

Temp. máximas Temp. mínimas Temp. medias Precipitaciones Rachas de viento máximas Velocidades máximas media en intervalos de 10 minutos

Datos horarios

Fecha y hora oficial Temperatura (ºC) Velocidad del viento (km/h) Dirección del viento Racha (km/h) Dirección de racha Precipitación (mm) Presión (hPa) Tendencia (hPa) Humedad (%)
2019-02-17 23:00:00 14.3 6 Este 21 Este 0 -- -- 29
2019-02-17 22:00:00 14.9 8 Sudeste 23 Sudeste 0 -- -- 24
2019-02-17 21:00:00 15.4 7 Sur 21 Sudeste 0 -- -- 21
2019-02-17 20:00:00 15.2 7 Sur 22 Sudeste 0 -- -- 20
2019-02-17 19:00:00 15.3 5 Sudoeste 13 Sudoeste 0 -- -- 24
2019-02-17 18:00:00 16.9 6 Sudoeste 10 Oeste 0 -- -- 19
2019-02-17 17:00:00 19.7 3 Sudoeste 17 Sudoeste 0 -- -- 17
2019-02-17 16:00:00 19.7 7 Sudeste 23 Sudeste 0 -- -- 14
2019-02-17 15:00:00 19.9 6 Norte 30 Este 0 -- -- 14
2019-02-17 14:00:00 20 7 Sur 35 Sudoeste 0 -- -- 12
2019-02-17 13:00:00 18.5 13 Sudoeste 34 Sudoeste 0 -- -- 13
2019-02-17 12:00:00 17.8 8 Sudoeste 31 Sudoeste 0 -- -- 13
2019-02-17 11:00:00 16.4 11 Sudoeste 31 Sudoeste 0 -- -- 11
2019-02-17 10:00:00 14.9 9 Sudoeste 30 Oeste 0 -- -- 12
2019-02-17 09:00:00 13 5 Oeste 21 Sudeste 0 -- -- 15
2019-02-17 08:00:00 13.3 5 Sur 29 Este 0 -- -- 16
2019-02-17 07:00:00 13.6 10 Sur 28 Sudeste 0 -- -- 13
2019-02-17 06:00:00 13.7 12 Sudoeste 26 Sudoeste 0 -- -- 17
2019-02-17 05:00:00 13.6 8 Sudoeste 23 Sudoeste 0 -- -- 21
2019-02-17 04:00:00 13.9 8 Sudoeste 28 Sur 0 -- -- 21
2019-02-17 03:00:00 13.9 10 Sudoeste 31 Este 0 -- -- 21
2019-02-17 02:00:00 14.3 8 Sudeste 21 Sudoeste 0 -- -- 19
2019-02-17 01:00:00 14.6 7 Sudoeste 25 Sudeste 0 -- -- 20
2019-02-17 00:00:00 14.8 7 Sudeste 24 Sudeste 0 -- -- 22
2019-02-16 23:00:00 14.7 6 Sudeste 22 Oeste 0 -- -- 23
2019-02-16 22:00:00 14.9 6 Nordeste 29 Oeste 0 -- -- 24
2019-02-16 21:00:00 14.7 3 Norte 33 Este 0 -- -- 23
2019-02-16 20:00:00 15 6 Sur 37 Sudeste 0 -- -- 26
2019-02-16 19:00:00 15.6 5 Sur 24 Sudoeste 0 -- -- 31
2019-02-16 18:00:00 16.5 9 Sudeste 24 Sudeste 0 -- -- 29
2019-02-16 17:00:00 17.9 5 Este 24 Este 0 -- -- 26
2019-02-16 16:00:00 18.3 9 Sudeste 30 Sudeste 0 -- -- 25
2019-02-16 15:00:00 18.9 11 Sudeste 24 Sudeste 0 -- -- 24
2019-02-16 14:00:00 18.8 9 Sudeste 25 Sudoeste 0 -- -- 27
2019-02-16 13:00:00 18.3 8 Este 34 Este 0 -- -- 30
2019-02-16 12:00:00 17.4 6 Sudeste 22 Sudeste 0 -- -- 34
2019-02-16 11:00:00 15.8 7 Sur 22 Sudoeste 0 -- -- 38
2019-02-16 10:00:00 11.8 7 Sudoeste 17 Sudoeste 0 -- -- 46
2019-02-16 09:00:00 6 2 Sudoeste 6 Sudoeste 0 -- -- 73
2019-02-16 08:00:00 5.9 0 Calma 8 Este 0 -- -- 71
2019-02-16 07:00:00 5.7 2 Sudoeste 6 Este 0 -- -- 72
2019-02-16 06:00:00 5.7 2 Sur 7 Noroeste 0 -- -- 71
2019-02-16 05:00:00 5.9 0 Calma 6 Sudeste 0 -- -- 71
2019-02-16 04:00:00 5.9 2 Sur 5 Noroeste 0 -- -- 71
2019-02-16 03:00:00 6.2 2 Sur 5 Oeste 0 -- -- 68
2019-02-16 02:00:00 6.7 0 Calma 6 Oeste 0 -- -- 65
2019-02-16 01:00:00 6.8 3 Oeste 5 Sudeste 0 -- -- 62
2019-02-16 00:00:00 7.2 0 Calma 6 Sudoeste 0 -- -- 59
2019-02-15 23:00:00 7.8 2 Sudeste 6 Sudeste 0 -- -- 54
2019-02-15 22:00:00 8.8 2 Oeste 6 Sudeste 0 -- -- 48
2019-02-15 21:00:00 10 0 Calma 5 Sudoeste 0 -- -- 44
2019-02-15 20:00:00 12 3 Este 7 Sudoeste 0 -- -- 36
2019-02-15 19:00:00 13.9 3 Sudoeste 14 Norte 0 -- -- 29
2019-02-15 18:00:00 15.8 4 Sur 12 Sudeste 0 -- -- 26
2019-02-15 17:00:00 19.3 5 Sudeste 12 Sudeste 0 -- -- 19
2019-02-15 16:00:00 20.1 5 Sudeste 23 Sudeste 0 -- -- 17
2019-02-15 15:00:00 19.9 9 Sudeste 23 Sudeste 0 -- -- 15
2019-02-15 14:00:00 19.3 9 Sudeste 26 Este 0 -- -- 18
2019-02-15 13:00:00 18.2 8 Sudeste 28 Sudeste 0 -- -- 24
2019-02-15 12:00:00 17.1 9 Sudeste 24 Este 0 -- -- 28
2019-02-15 11:00:00 16 9 Sudeste 30 Este 0 -- -- 28
2019-02-15 10:00:00 12.6 11 Sudeste 24 Este 0 -- -- 29
2019-02-15 09:00:00 9.1 2 Oeste 10 Sudeste 0 -- -- 44
2019-02-15 08:00:00 10.3 3 Oeste 17 Este 0 -- -- 39
2019-02-15 07:00:00 10.5 5 Sudeste 20 Sudeste 0 -- -- 42
2019-02-15 06:00:00 10.6 4 Sur 23 Sudeste 0 -- -- 44
2019-02-15 05:00:00 11.1 4 Sudoeste 20 Sudeste 0 -- -- 43
2019-02-15 04:00:00 12 5 Sudoeste 21 Este 0 -- -- 40
2019-02-15 03:00:00 13 5 Sur 20 Sudeste 0 -- -- 38
2019-02-15 02:00:00 13.3 6 Sudoeste 21 Sudoeste 0 -- -- 34
2019-02-15 01:00:00 13.1 4 Sudoeste 18 Sudoeste 0 -- -- 35
2019-02-15 00:00:00 12.7 5 Sur 17 Sudeste 0 -- -- 37
2019-02-14 23:00:00 13 4 Sur 18 Sur 0 -- -- 33
2019-02-14 22:00:00 13.8 6 Sudoeste 21 Sudoeste 0 -- -- 29
2019-02-14 21:00:00 14.2 6 Sur 26 Sudoeste 0 -- -- 25
2019-02-14 20:00:00 14.5 7 Sur 15 Sur 0 -- -- 20
2019-02-14 19:00:00 15 5 Sudoeste 15 Sudeste 0 -- -- 26
2019-02-14 18:00:00 16.3 8 Sudoeste 23 Sudoeste 0 -- -- 23
2019-02-14 17:00:00 18 9 Sudoeste 29 Sudoeste 0 -- -- 19
2019-02-14 16:00:00 18.1 9 Sudoeste 28 Sudoeste 0 -- -- 19
2019-02-14 15:00:00 18 6 Sur 28 Sudeste 0 -- -- 24
2019-02-14 14:00:00 17.8 7 Sudoeste 25 Oeste 0 -- -- 24
2019-02-14 13:00:00 16.8 8 Sur 26 Sudeste 0 -- -- 25
2019-02-14 12:00:00 15.8 8 Sur 30 Sudeste 0 -- -- 31
2019-02-14 11:00:00 15 9 Sur 28 Sudoeste 0 -- -- 33
2019-02-14 10:00:00 13.8 6 Sudoeste 22 Sudeste 0 -- -- 36
2019-02-14 09:00:00 12 4 Sur 26 Sur 0 -- -- 42
2019-02-14 08:00:00 11.4 4 Sur 26 Sudeste 0 -- -- 49
2019-02-14 07:00:00 11.8 5 Sur 24 Este 0 -- -- 48
2019-02-14 06:00:00 11.8 4 Sudeste 24 Sudeste 0 -- -- 49
2019-02-14 05:00:00 11.6 5 Sur 17 Sudeste 0 -- -- 50
2019-02-14 04:00:00 10.6 4 Sur 17 Sur 0 -- -- 52
2019-02-14 03:00:00 9.7 4 Sudeste 19 Este 0 -- -- 56
2019-02-14 02:00:00 8.9 5 Sudeste 18 Sudeste 0 -- -- 64
2019-02-14 01:00:00 7.3 3 Oeste 9 Sur 0 -- -- 75
2019-02-14 00:00:00 6.9 3 Sudeste 6 Este 0 -- -- 77
2019-02-13 23:00:00 7 3 Sudoeste 6 Oeste 0 -- -- 75
2019-02-13 22:00:00 7.6 2 Noroeste 5 Nordeste 0 -- -- 72
2019-02-13 21:00:00 8.4 0 Calma 5 Sudoeste 0 -- -- 68
2019-02-13 20:00:00 9.7 0 Calma 6 Sudoeste 0 -- -- 64
2019-02-13 19:00:00 11.9 3 Oeste 9 Sudeste 0 -- -- 55
2019-02-13 18:00:00 14.6 4 Sur 13 Este 0 -- -- 44
2019-02-13 17:00:00 17 5 Sudeste 12 Sudeste 0 -- -- 41
2019-02-13 16:00:00 18.1 4 Sudeste 19 Sudeste 0 -- -- 38
2019-02-13 15:00:00 17.5 4 Sudeste 17 Sudeste 0 -- -- 38
2019-02-13 14:00:00 16.3 4 Sudeste 12 Este 0 -- -- 46
2019-02-13 13:00:00 13.6 3 Noroeste 5 Noroeste 0 -- -- 58
2019-02-13 12:00:00 10.5 0 Calma 4 Sudeste 0 -- -- 78
2019-02-13 11:00:00 6.6 0 Calma 5 Sudeste 0 -- -- 98
2019-02-13 10:00:00 3.1 0 Calma 4 Este 0 -- -- 100
2019-02-13 09:00:00 1.2 0 Calma 3 Noroeste 0 -- -- 99
2019-02-13 08:00:00 1 0 Calma 3 Sudeste 0 -- -- 99
2019-02-13 07:00:00 1.3 0 Calma 3 Sudoeste 0 -- -- 99
2019-02-13 06:00:00 1.5 0 Calma 3 Sudeste 0 -- -- 99
2019-02-13 05:00:00 1.9 0 Calma 2 Sudoeste 0 -- -- 98
2019-02-13 04:00:00 1.9 2 Sudeste 4 Sudoeste 0 -- -- 98
2019-02-13 03:00:00 2.5 0 Calma 3 Sudoeste 0 -- -- 98
2019-02-13 02:00:00 2.9 3 Sudeste 4 Sudeste 0 -- -- 98
2019-02-13 01:00:00 3.2 0 Calma 4 Sudeste 0 -- -- 97
2019-02-13 00:00:00 3.7 0 Calma 3 Oeste 0 -- -- 96
2019-02-12 23:00:00 4.1 0 Calma 4 Sudoeste 0 -- -- 95
2019-02-12 22:00:00 4.7 0 Calma 3 Sudeste 0 -- -- 93
2019-02-12 21:00:00 5.7 0 Calma 5 Sudoeste 0 -- -- 90
2019-02-12 20:00:00 7.1 5 Oeste 6 Sudoeste 0 -- -- 85
2019-02-12 19:00:00 8.7 3 Norte 10 Nordeste 0 -- -- 77
2019-02-12 18:00:00 9.9 3 Nordeste 14 Norte 0 -- -- 72
2019-02-12 17:00:00 11.6 4 Norte 14 Norte 0 -- -- 67
2019-02-12 16:00:00 11.9 6 Nordeste 17 Norte 0 -- -- 68
2019-02-12 15:00:00 12.5 5 Nordeste 13 Norte 0 -- -- 62
2019-02-12 14:00:00 12.3 3 Nordeste 10 Nordeste 0 -- -- 65
2019-02-12 13:00:00 8.9 2 Nordeste 5 Nordeste 0 -- -- 90
2019-02-12 12:00:00 5.5 2 Norte 7 Noroeste 0 -- -- 100
2019-02-12 11:00:00 4.8 4 Norte 7 Noroeste 0 -- -- 100
2019-02-12 10:00:00 4.5 2 Norte 6 Sudeste 0 -- -- 100
2019-02-12 09:00:00 4.5 2 Oeste 9 Oeste 0.2 -- -- 99
2019-02-12 08:00:00 4.6 2 Sur 5 Sudeste 0 -- -- 99
2019-02-12 07:00:00 4.7 2 Sur 6 Oeste 0 -- -- 99
2019-02-12 06:00:00 4.7 2 Oeste 7 Este 0 -- -- 99
2019-02-12 05:00:00 4.8 5 Este 8 Este 0 -- -- 99
2019-02-12 04:00:00 5.1 0 Calma 6 Sudoeste 0 -- -- 99
2019-02-12 03:00:00 5.4 0 Calma 4 Sudoeste 0 -- -- 98
2019-02-12 02:00:00 5.7 0 Calma 4 Sur 0 -- -- 98
2019-02-12 01:00:00 5.7 2 Este 6 Sudoeste 0 -- -- 98
2019-02-12 00:00:00 5.7 0 Calma 4 Sudoeste 0 -- -- 97
2019-02-11 23:00:00 6.3 0 Calma 9 Sur 0 -- -- 96
2019-02-11 22:00:00 6.5 3 Noroeste 9 Sudoeste 0 -- -- 97
2019-02-11 21:00:00 6.4 2 Sudoeste 4 Sudoeste 0 -- -- 95
2019-02-11 20:00:00 7.3 2 Sudoeste 6 Sudoeste 0 -- -- 91
2019-02-11 19:00:00 7.8 3 Sur 5 Sur 0.4 -- -- 91
2019-02-11 18:00:00 8.2 4 Sur 16 Sudoeste 0 -- -- 86
2019-02-11 17:00:00 8.7 4 Sudoeste 20 Sudoeste 0.2 -- -- 86
2019-02-11 16:00:00 9.3 6 Norte 21 Noroeste 0.4 -- -- 85
2019-02-11 15:00:00 10.1 7 Oeste 19 Oeste 0 -- -- 78
2019-02-11 14:00:00 9.3 5 Oeste 18 Noroeste 0.6 -- -- 82
2019-02-11 13:00:00 9.2 9 Oeste 19 Oeste 0.8 -- -- 86
2019-02-11 12:00:00 8.9 7 Oeste 21 Oeste 0.6 -- -- 87
2019-02-11 11:00:00 8.1 9 Oeste 20 Oeste 0.2 -- -- 88
2019-02-11 10:00:00 7.6 9 Oeste 19 Oeste 0.2 -- -- 89
2019-02-11 09:00:00 7.3 5 Sudoeste 20 Noroeste 1 -- -- 91
2019-02-11 08:00:00 7.1 6 Oeste 15 Oeste 0.2 -- -- 90
2019-02-11 07:00:00 7.2 9 Sudoeste 17 Oeste 0 -- -- 86
2019-02-11 06:00:00 7.2 9 Oeste 22 Sudoeste 0.6 -- -- 87
2019-02-11 05:00:00 7.9 13 Sudoeste 25 Sudoeste 0 -- -- 80
2019-02-11 04:00:00 8.2 13 Oeste 26 Noroeste 0 -- -- 76
2019-02-11 03:00:00 8.1 10 Oeste 19 Oeste 0 -- -- 81
2019-02-11 02:00:00 7.2 5 Oeste 14 Sudoeste 0 -- -- 86
2019-02-11 01:00:00 6.8 3 Oeste 10 Oeste 0 -- -- 89
2019-02-11 00:00:00 6.9 2 Sudoeste 9 Sudoeste 0 -- -- 86
2019-02-10 23:00:00 7.7 4 Sudoeste 18 Oeste 0 -- -- 85
2019-02-10 22:00:00 8.6 7 Oeste 21 Oeste 0 -- -- 79
2019-02-10 21:00:00 8.9 4 Sudoeste 19 Sudoeste 0 -- -- 75
2019-02-10 20:00:00 9.2 6 Oeste 23 Oeste 0 -- -- 74
2019-02-10 19:00:00 9.2 5 Sudoeste 13 Sudoeste 0 -- -- 78
2019-02-10 18:00:00 9.1 4 Sudeste 10 Sudoeste 0.2 -- -- 87
2019-02-10 17:00:00 9.6 5 Norte 24 Oeste 0 -- -- 84
2019-02-10 16:00:00 9.5 9 Noroeste 26 Oeste 0.4 -- -- 84
2019-02-10 15:00:00 10.8 6 Oeste 23 Sudoeste 0.2 -- -- 81
2019-02-10 14:00:00 10.3 8 Oeste 30 Oeste 0.8 -- -- 86
2019-02-10 13:00:00 10.1 5 Oeste 21 Sudoeste 0.6 -- -- 87
2019-02-10 12:00:00 10 7 Oeste 32 Oeste 0.6 -- -- 84
2019-02-10 11:00:00 13 4 Noroeste 29 Oeste 0.2 -- -- 73
2019-02-10 10:00:00 13.6 12 Oeste 36 Oeste 0 -- -- 61
2019-02-10 09:00:00 12.9 8 Este 35 Sudoeste 0 -- -- 62
2019-02-10 08:00:00 12.7 11 Sur 44 Sudoeste 0 -- -- 63
2019-02-10 07:00:00 13 10 Sudeste 31 Nordeste 0 -- -- 58
2019-02-10 06:00:00 13.4 10 Sudeste 50 Sudeste 0 -- -- 53
2019-02-10 05:00:00 13.3 11 Norte 33 Oeste 0 -- -- 52
2019-02-10 04:00:00 12.9 13 Sudeste 43 Este 0 -- -- 53
2019-02-10 03:00:00 13.3 11 Sur 40 Sur 0 -- -- 49
2019-02-10 02:00:00 13.5 9 Este 22 Este 0 -- -- 48
2019-02-10 01:00:00 14.2 9 Sur 40 Sudoeste 0 -- -- 48
2019-02-10 00:00:00 14.5 11 Sur 40 Oeste 0 -- -- 48
2019-02-09 23:00:00 14.6 6 Sudoeste 23 Sur 0 -- -- 48
2019-02-09 22:00:00 14.4 10 Sudeste 33 Sudoeste 0 -- -- 49
2019-02-09 21:00:00 13.4 5 Sudeste 14 Sur 0 -- -- 56
2019-02-09 20:00:00 13.2 3 Sudeste 13 Sudoeste 0 -- -- 57
2019-02-09 19:00:00 14 3 Oeste 17 Sudoeste 0 -- -- 52
2019-02-09 18:00:00 15.2 5 Sur 14 Sudoeste 0 -- -- 48
2019-02-09 17:00:00 15.9 4 Oeste 21 Sudoeste 0 -- -- 48
2019-02-09 16:00:00 17.5 6 Sudoeste 17 Sur 0 -- -- 43
2019-02-09 15:00:00 16.9 3 Sudoeste 20 Oeste 0 -- -- 48
2019-02-09 14:00:00 16.5 8 Sudoeste 22 Sudoeste 0 -- -- 48
2019-02-09 13:00:00 15.3 4 Sudeste 10 Noroeste 0 -- -- 55
2019-02-09 12:00:00 13.9 3 Oeste 6 Noroeste 0 -- -- 57
2019-02-09 11:00:00 10.8 2 Este 6 Noroeste 0 -- -- 75
2019-02-09 10:00:00 8.3 4 Sudeste 6 Sudeste 0 -- -- 79
2019-02-09 09:00:00 6.5 2 Sudeste 4 Este 0 -- -- 85
2019-02-09 08:00:00 6.9 0 Calma 8 Sudeste 0 -- -- 82
2019-02-09 07:00:00 7.6 3 Sudeste 7 Sudeste 0 -- -- 79
2019-02-09 06:00:00 8.8 2 Sudoeste 6 Sur 0 -- -- 73
2019-02-09 05:00:00 9.4 0 Calma 5 Sudeste 0 -- -- 71
2019-02-09 04:00:00 9.8 4 Sudeste 5 Sudeste 0 -- -- 71
2019-02-09 03:00:00 10 3 Sudeste 9 Oeste 0 -- -- 69
2019-02-09 02:00:00 10.4 2 Sur 8 Sudoeste 0 -- -- 67
2019-02-09 01:00:00 10.5 2 Sudeste 9 Noroeste 0 -- -- 66
2019-02-09 00:00:00 11.2 3 Sur 13 Sur 0 -- -- 62
2019-02-08 23:00:00 12.2 5 Sur 16 Sudoeste 0 -- -- 57
2019-02-08 22:00:00 8.5 2 Este 9 Este 0 -- -- 89
2019-02-08 21:00:00 8.3 3 Este 9 Sudeste 0 -- -- 91
2019-02-08 20:00:00 8.8 3 Sur 7 Sudeste 0 -- -- 89
2019-02-08 19:00:00 9.7 4 Este 23 Nordeste 0 -- -- 88
2019-02-08 18:00:00 11 8 Nordeste 23 Nordeste 0 -- -- 81
2019-02-08 17:00:00 15.6 3 Nordeste 16 Nordeste 0 -- -- 59
2019-02-08 16:00:00 17.4 6 Noroeste 21 Oeste 0 -- -- 51
2019-02-08 15:00:00 17.3 8 Oeste 18 Oeste 0 -- -- 42
2019-02-08 14:00:00 16.4 7 Sudoeste 20 Sudoeste 0 -- -- 46
2019-02-08 13:00:00 14.6 6 Sudoeste 14 Sur 0 -- -- 53
2019-02-08 12:00:00 12.8 5 Sudoeste 12 Sur 0 -- -- 59
2019-02-08 11:00:00 11.6 6 Sudoeste 9 Sudoeste 0 -- -- 65
2019-02-08 10:00:00 6.3 2 Oeste 8 Este 0 -- -- 96
2019-02-08 09:00:00 3.4 3 Oeste 8 Oeste 0 -- -- 99
2019-02-08 08:00:00 2.9 0 Calma 6 Oeste 0 -- -- 99
2019-02-08 07:00:00 2.7 2 Sudeste 5 Sudeste 0 -- -- 99
2019-02-08 06:00:00 2.7 3 Sudeste 5 Este 0 -- -- 98
2019-02-08 05:00:00 2.8 2 Sudeste 5 Sudeste 0 -- -- 98
2019-02-08 04:00:00 2.9 0 Calma 4 Sudeste 0 -- -- 98
2019-02-08 03:00:00 3.1 0 Calma 4 Este 0 -- -- 97
2019-02-08 02:00:00 3.4 0 Calma 4 Sudeste 0 -- -- 97
2019-02-08 01:00:00 3.9 0 Calma 4 Sudoeste 0 -- -- 96
2019-02-08 00:00:00 4.4 0 Calma 3 Sudeste 0 -- -- 95
2019-02-07 23:00:00 4.8 2 Sur 4 Sudoeste 0 -- -- 93
2019-02-07 22:00:00 5.5 0 Calma 4 Sudoeste 0 -- -- 90
2019-02-07 21:00:00 6.4 3 Oeste 5 Sudoeste 0 -- -- 88
2019-02-07 20:00:00 7.6 0 Calma 5 Sudoeste 0 -- -- 84
2019-02-07 19:00:00 9.2 0 Calma 8 Sudoeste 0 -- -- 75
2019-02-07 18:00:00 10.2 4 Sudoeste 8 Oeste 0 -- -- 69
2019-02-07 17:00:00 10.9 4 Oeste 12 Sudoeste 0 -- -- 66
2019-02-07 16:00:00 10.6 5 Sudoeste 13 Oeste 0 -- -- 76
2019-02-07 15:00:00 11.3 4 Norte 17 Sudoeste 0 -- -- 77
2019-02-07 14:00:00 11.2 8 Oeste 19 Sudoeste 0 -- -- 77
2019-02-07 13:00:00 10.7 8 Oeste 27 Oeste 0 -- -- 82
2019-02-07 12:00:00 9.9 5 Oeste 13 Oeste 0 -- -- 91
2019-02-07 11:00:00 8.3 3 Nordeste 9 Sudeste 0 -- -- 95
2019-02-07 10:00:00 7.2 2 Nordeste 5 Noroeste 0 -- -- 97
2019-02-07 09:00:00 6.5 3 Este 6 Este 0 -- -- 97
2019-02-07 08:00:00 6.4 0 Calma 4 Sur 0 -- -- 98
2019-02-07 07:00:00 6.2 0 Calma 4 Sudeste 0 -- -- 97
2019-02-07 06:00:00 6.2 3 Sudoeste 4 Sudoeste 0 -- -- 96
2019-02-07 05:00:00 6.7 3 Oeste 7 Sudoeste 0 -- -- 95
2019-02-07 04:00:00 7 6 Sudoeste 8 Sudoeste 0 -- -- 94
2019-02-07 03:00:00 7.2 2 Noroeste 9 Sudeste 0 -- -- 94
2019-02-07 02:00:00 7.3 4 Sudeste 6 Sudeste 0 -- -- 95
2019-02-07 01:00:00 7.3 0 Calma 5 Este 0 -- -- 93
2019-02-07 00:00:00 7.8 0 Calma 5 Sudoeste 0 -- -- 92
2019-02-06 23:00:00 8.4 0 Calma 5 Sudoeste 0 -- -- 89
2019-02-06 22:00:00 9.4 0 Calma 6 Oeste 0 -- -- 85
2019-02-06 21:00:00 10.2 3 Sur 6 Oeste 0 -- -- 83
2019-02-06 20:00:00 11.5 2 Sudoeste 7 Sudeste 0 -- -- 76
2019-02-06 19:00:00 13.6 3 Oeste 9 Sur 0 -- -- 65
2019-02-06 18:00:00 15.9 5 Sudoeste 10 Oeste 0 -- -- 55
2019-02-06 17:00:00 17.5 5 Sudoeste 9 Sudoeste 0 -- -- 53
2019-02-06 16:00:00 18.8 3 Sudoeste 6 Oeste 0 -- -- 55
2019-02-06 15:00:00 18.6 3 Oeste 6 Sudoeste 0 -- -- 58
2019-02-06 14:00:00 16.5 4 Oeste 7 Sudoeste 0 -- -- 68
2019-02-06 13:00:00 14.9 2 Noroeste 6 Sudoeste 0 -- -- 71
2019-02-06 12:00:00 13.7 0 Calma 8 Este 0 -- -- 75
2019-02-06 11:00:00 11.8 3 Nordeste 8 Sudeste 0 -- -- 84
2019-02-06 10:00:00 9.7 0 Calma 8 Sudeste 0 -- -- 98
2019-02-06 09:00:00 8.9 0 Calma 6 Sudoeste 0 -- -- 99
2019-02-06 08:00:00 8.8 0 Calma 3 Sudoeste 0 -- -- 99
2019-02-06 07:00:00 8.7 0 Calma 3 Sudeste 0 -- -- 99
2019-02-06 06:00:00 8.7 3 Sudeste 5 Sudeste 0 -- -- 99
2019-02-06 05:00:00 8.8 2 Sudoeste 5 Sudeste 0 -- -- 99
2019-02-06 04:00:00 8.7 3 Sudeste 5 Este 0 -- -- 99
2019-02-06 03:00:00 8.8 4 Sudeste 6 Este 0 -- -- 98
2019-02-06 02:00:00 9 0 Calma 4 Sudeste 0 -- -- 98
2019-02-06 01:00:00 9.1 0 Calma 4 Norte 0 -- -- 98
2019-02-06 00:00:00 9.2 2 Sudoeste 4 Oeste 0 -- -- 97
2019-02-05 23:00:00 9.8 0 Calma 4 Este 0 -- -- 96
2019-02-05 22:00:00 10.1 0 Calma 4 Sudoeste 0 -- -- 95
2019-02-05 21:00:00 10.5 0 Calma 3 Sudeste 0 -- -- 93
2019-02-05 20:00:00 11 0 Calma 4 Sudoeste 0 -- -- 91
2019-02-05 19:00:00 11.4 0 Calma 4 Sudoeste 0 -- -- 92
2019-02-05 18:00:00 11.8 2 Sudeste 10 Norte 0 -- -- 90
2019-02-05 17:00:00 12.4 3 Nordeste 12 Nordeste 0 -- -- 89
2019-02-05 16:00:00 12.9 2 Norte 9 Norte 0 -- -- 88
2019-02-05 15:00:00 13.1 4 Este 10 Sudeste 0 -- -- 84
2019-02-05 14:00:00 12.2 6 Este 10 Sudeste 0 -- -- 88
2019-02-05 13:00:00 11.6 2 Nordeste 6 Este 0 -- -- 91
2019-02-05 12:00:00 10.4 0 Calma 4 Sudeste 0 -- -- 98
2019-02-05 11:00:00 9.1 0 Calma 4 Sudeste 0 -- -- 99
2019-02-05 10:00:00 8.3 2 Sudoeste 3 Sudoeste 0 -- -- 100
2019-02-05 09:00:00 7.8 2 Sur 4 Sudeste 0 -- -- 99
2019-02-05 08:00:00 7.5 3 Sur 8 Sudeste 0 -- -- 99
2019-02-05 07:00:00 7.5 2 Este 4 Sudeste 0 -- -- 99
2019-02-05 06:00:00 7.3 0 Calma 5 Este 0 -- -- 99
2019-02-05 05:00:00 7.3 0 Calma 5 Sudoeste 0 -- -- 99
2019-02-05 04:00:00 7.4 0 Calma 4 Oeste 0 -- -- 99
2019-02-05 03:00:00 7.2 0 Calma 4 Este 0.2 -- -- 99
2019-02-05 02:00:00 7.1 0 Calma 4 Sudeste 0.2 -- -- 98
2019-02-05 01:00:00 7 0 Calma 3 Oeste 0.2 -- -- 98
2019-02-05 00:00:00 7 0 Calma 5 Sudeste 0.4 -- -- 97
2019-02-04 23:00:00 7.1 0 Calma 3 Oeste 1 -- -- 97
2019-02-04 22:00:00 7.2 2 Sudeste 6 Oeste 0 -- -- 96
2019-02-04 21:00:00 7.3 4 Oeste 6 Oeste 0 -- -- 95
2019-02-04 20:00:00 7.7 0 Calma 3 Oeste 0 -- -- 94
2019-02-04 19:00:00 7.9 2 Sudeste 5 Sudoeste 0.2 -- -- 90
2019-02-04 18:00:00 8.6 3 Sudoeste 11 Sudoeste 0.4 -- -- 86
2019-02-04 17:00:00 9.8 4 Sudoeste 7 Sudoeste 0 -- -- 74
2019-02-04 16:00:00 10.7 5 Sudoeste 8 Sudoeste 0 -- -- 63
2019-02-04 15:00:00 10.6 3 Sudoeste 8 Sudoeste 0 -- -- 55
2019-02-04 14:00:00 10.1 4 Sudeste 6 Sudeste 0 -- -- 63
2019-02-04 13:00:00 8.4 2 Sur 7 Sudoeste 0 -- -- 68
2019-02-04 12:00:00 5.7 2 Este 5 Este 0 -- -- 97
2019-02-04 11:00:00 3.2 3 Sudeste 7 Sudoeste 0 -- -- 100
2019-02-04 10:00:00 1.3 0 Calma 4 Este 0 -- -- 100
2019-02-04 09:00:00 0.2 3 Sur 8 Sudoeste 0 -- -- 99
2019-02-04 08:00:00 0.3 3 Sur 7 Sudeste 0 -- -- 99
2019-02-04 07:00:00 0.9 3 Sudoeste 9 Sudeste 0 -- -- 99
2019-02-04 06:00:00 1 3 Sudeste 8 Este 0 -- -- 99
2019-02-04 05:00:00 1.5 2 Sudeste 9 Sudeste 0 -- -- 99
2019-02-04 04:00:00 1.8 5 Sudoeste 12 Sudoeste 0 -- -- 99
2019-02-04 03:00:00 1.9 6 Este 11 Sudeste 0 -- -- 98
2019-02-04 02:00:00 2.4 4 Sudeste 6 Este 0.2 -- -- 98
2019-02-04 01:00:00 2.8 3 Sudeste 8 Sudoeste 0 -- -- 98
2019-02-04 00:00:00 2.9 4 Sur 10 Este 0 -- -- 98
2019-02-03 23:00:00 2.9 0 Calma 4 Oeste 0 -- -- 98
2019-02-03 22:00:00 2.9 0 Calma 4 Noroeste 0 -- -- 97
2019-02-03 21:00:00 3.3 2 Sudeste 6 Oeste 0.2 -- -- 97
2019-02-03 20:00:00 3.4 0 Calma 6 Sudoeste 0 -- -- 96
2019-02-03 19:00:00 3.6 0 Calma 6 Sudeste 0 -- -- 93
2019-02-03 18:00:00 4.3 3 Sudeste 6 Este 0 -- -- 92
2019-02-03 17:00:00 5.1 2 Noroeste 9 Sudeste 0 -- -- 89
2019-02-03 16:00:00 4.8 5 Este 20 Nordeste 2.4 -- -- 88
2019-02-03 15:00:00 5.4 8 Norte 19 Norte 1.6 -- -- 84
2019-02-03 14:00:00 6.5 9 Sudoeste 15 Norte 0 -- -- 76
2019-02-03 13:00:00 6.6 4 Norte 11 Oeste 0 -- -- 76
2019-02-03 12:00:00 5.4 5 Oeste 25 Oeste 0.4 -- -- 79
2019-02-03 11:00:00 6 7 Sudoeste 23 Noroeste 0.2 -- -- 75
2019-02-03 10:00:00 5.1 6 Norte 44 Sudoeste 0.6 -- -- 78
2019-02-03 09:00:00 5.7 12 Oeste 34 Oeste 0.6 -- -- 67
2019-02-03 08:00:00 5.2 17 Oeste 38 Oeste 0 -- -- 73
2019-02-03 07:00:00 4.4 13 Oeste 32 Oeste 0.2 -- -- 78
2019-02-03 06:00:00 5 4 Sur 23 Norte 0 -- -- 74
2019-02-03 05:00:00 4.9 11 Noroeste 32 Nordeste 1.2 -- -- 69
2019-02-03 04:00:00 5.9 12 Oeste 40 Noroeste 0 -- -- 58
2019-02-03 03:00:00 4.9 7 Sudoeste 27 Norte 0 -- -- 74
2019-02-03 02:00:00 3.9 6 Norte 39 Norte 0.8 -- -- 79
2019-02-03 01:00:00 6.4 8 Norte 37 Noroeste 0 -- -- 56
2019-02-03 00:00:00 6.1 9 Norte 33 Norte 0 -- -- 62
2019-02-02 23:00:00 5.3 8 Noroeste 54 Oeste -- -- -- 78
2019-02-02 22:00:00 -- -- -- -- -- -- -- -- --
2019-02-02 21:00:00 -- -- -- -- -- -- -- -- --
2019-02-02 20:00:00 -- -- -- -- -- -- -- -- --
2019-02-02 19:00:00 -- -- -- -- -- -- -- -- --
2019-02-02 18:00:00 -- -- -- -- -- -- -- -- --
2019-02-02 17:00:00 5.8 11 Oeste 39 Oeste 4 -- -- 76
2019-02-02 16:00:00 5.8 16 Oeste 33 Oeste 1.4 -- -- 77
2019-02-02 15:00:00 8.1 8 Noroeste 35 Norte 0 -- -- 56
2019-02-02 14:00:00 7.8 14 Noroeste 42 Oeste 0 -- -- 62
2019-02-02 13:00:00 6.6 14 Noroeste 35 Oeste 0 -- -- 61
2019-02-02 12:00:00 5.8 11 Noroeste 38 Norte 1.6 -- -- 77
2019-02-02 11:00:00 5 12 Oeste 46 Oeste 3 -- -- 83
2019-02-02 10:00:00 4.5 17 Oeste 50 Oeste 5.8 -- -- 87
2019-02-02 09:00:00 6.6 16 Noroeste 50 Oeste 0.2 -- -- 77
2019-02-02 08:00:00 5.4 14 Oeste 43 Oeste 6.8 -- -- 88
2019-02-02 07:00:00 6 27 Oeste 69 Noroeste 5 -- -- 86
2019-02-02 06:00:00 5.5 10 Oeste 42 Oeste 7 -- -- 92
2019-02-02 05:00:00 5.3 9 Oeste 23 Sur 5 -- -- 93
2019-02-02 04:00:00 5.9 4 Oeste 15 Sudoeste 0 -- -- 86
2019-02-02 03:00:00 5.8 4 Sudoeste 15 Oeste 1.6 -- -- 90
2019-02-02 02:00:00 5.8 3 Noroeste 19 Sudoeste 0 -- -- 86
2019-02-02 01:00:00 5.1 2 Sudeste 13 Sudoeste 0 -- -- 92
2019-02-02 00:00:00 4.8 3 Sudoeste 6 Este 0.2 -- -- 96
2019-02-01 23:00:00 4.4 3 Oeste 7 Sudeste 0 -- -- 96
2019-02-01 22:00:00 4.4 5 Sudoeste 10 Oeste 0 -- -- 95
2019-02-01 21:00:00 4.4 5 Sudeste 10 Sudeste 0 -- -- 95
2019-02-01 20:00:00 4.7 3 Sur 8 Sur 0 -- -- 92
2019-02-01 19:00:00 5.2 5 Sudeste 13 Este 0.2 -- -- 90
2019-02-01 18:00:00 5.3 4 Sudeste 41 Noroeste 1.6 -- -- 89
2019-02-01 17:00:00 7.8 5 Nordeste 33 Sudoeste 2.2 -- -- 77
2019-02-01 16:00:00 8.3 6 Sudoeste 34 Sudoeste 1.4 -- -- 79
2019-02-01 15:00:00 11.6 7 Sudoeste 31 Sudoeste 0 -- -- 53
2019-02-01 14:00:00 11.3 12 Sudoeste 46 Oeste 0 -- -- 53
2019-02-01 13:00:00 11.3 9 Noroeste 37 Oeste 0 -- -- 53
2019-02-01 12:00:00 11.2 7 Sudoeste 40 Oeste 0 -- -- 53
2019-02-01 11:00:00 11.1 10 Sudoeste 42 Sudoeste 0 -- -- 55
2019-02-01 10:00:00 10.6 10 Oeste 39 Sudoeste 0 -- -- 55
2019-02-01 09:00:00 10 14 Oeste 35 Sudoeste 0 -- -- 57
2019-02-01 08:00:00 9.5 11 Sur 36 Oeste 0.2 -- -- 67
2019-02-01 07:00:00 9.2 6 Sudoeste 25 Oeste 0 -- -- 70
2019-02-01 06:00:00 7.3 5 Norte 12 Noroeste 0 -- -- 99
2019-02-01 05:00:00 7.9 3 Sudoeste 10 Sur 0 -- -- 98
2019-02-01 04:00:00 8.3 5 Sudoeste 9 Sudoeste 0.4 -- -- 98
2019-02-01 03:00:00 8.6 5 Sudoeste 11 Oeste 0.4 -- -- 98
2019-02-01 02:00:00 8.7 0 Calma 5 Sudeste 0.2 -- -- 98
2019-02-01 01:00:00 8.9 0 Calma 9 Oeste 0 -- -- 97
2019-02-01 00:00:00 8.9 2 Sur 9 Sur 0.2 -- -- 97
2019-01-31 23:00:00 9 7 Sudeste 17 Este 2.2 -- -- 96
2019-01-31 22:00:00 9.4 5 Sudeste 10 Sudeste 1.6 -- -- 94
2019-01-31 21:00:00 9.9 6 Sudoeste 20 Sudoeste 3.4 -- -- 91
2019-01-31 20:00:00 10.4 3 Oeste 10 Noroeste 5.6 -- -- 94
2019-01-31 19:00:00 11.7 4 Noroeste 42 Oeste 7.4 -- -- 90
2019-01-31 18:00:00 16 15 Oeste 42 Sudoeste 0 -- -- 66
2019-01-31 17:00:00 15 5 Sudoeste 30 Sudoeste 0.4 -- -- 78
2019-01-31 16:00:00 16.2 10 Oeste 30 Oeste 0 -- -- 66
2019-01-31 15:00:00 15.9 9 Oeste 31 Sur 0 -- -- 66
2019-01-31 14:00:00 15.5 8 Sudoeste 26 Oeste 0 -- -- 69
2019-01-31 13:00:00 14.4 5 Sudoeste 39 Sur 0.2 -- -- 75
2019-01-31 12:00:00 12 5 Nordeste 14 Nordeste 0 -- -- 91
2019-01-31 11:00:00 10.6 3 Este 13 Sudoeste 0.4 -- -- 97
2019-01-31 10:00:00 9.5 2 Sudoeste 7 Sudoeste 0.4 -- -- 98
2019-01-31 09:00:00 8.8 4 Sudoeste 10 Sudeste 2.2 -- -- 98
2019-01-31 08:00:00 8.5 0 Calma 10 Este 1.4 -- -- 97
2019-01-31 07:00:00 8.4 4 Sudeste 10 Este 2.4 -- -- 97
2019-01-31 06:00:00 8 2 Oeste 6 Sur 0.4 -- -- 97
2019-01-31 05:00:00 7.5 4 Sudoeste 9 Oeste 0.6 -- -- 96
2019-01-31 04:00:00 7.4 4 Sudeste 11 Este 0.6 -- -- 94
2019-01-31 03:00:00 6.7 3 Oeste 8 Este 0.4 -- -- 95
2019-01-31 02:00:00 6.5 2 Sudeste 14 Este 0.4 -- -- 91
2019-01-31 01:00:00 6.6 4 Sudeste 9 Sudeste 0.8 -- -- 91
2019-01-31 00:00:00 7.2 0 Calma 12 Este 1.2 -- -- 89
2019-01-30 23:00:00 7.6 4 Sur 12 Sudoeste 0.6 -- -- 85
2019-01-30 22:00:00 8.6 5 Sur 14 Sudoeste 0 -- -- 74
2019-01-30 21:00:00 9.2 5 Sur 25 Oeste 0 -- -- 69
2019-01-30 20:00:00 10 9 Sur 24 Sudoeste 0 -- -- 55
2019-01-30 19:00:00 9 4 Sur 16 Sur 0 -- -- 60
2019-01-30 18:00:00 9.3 5 Sudoeste 16 Sudoeste 0 -- -- 59
2019-01-30 17:00:00 9.3 2 Sudeste 9 Sudoeste 0 -- -- 63
2019-01-30 16:00:00 10 0 Calma 13 Sur 0 -- -- 57
2019-01-30 15:00:00 9.8 5 Sur 16 Sur 0 -- -- 65
2019-01-30 14:00:00 9.4 3 Sudeste 10 Este 0 -- -- 69
2019-01-30 13:00:00 8 2 Nordeste 12 Sudeste 0 -- -- 80
2019-01-30 12:00:00 6.2 4 Este 10 Este 0 -- -- 91
2019-01-30 11:00:00 5 2 Sudeste 10 Sur 0.6 -- -- 97
2019-01-30 10:00:00 4.2 5 Sudeste 9 Este 1 -- -- 97
2019-01-30 09:00:00 4.1 3 Sudeste 6 Sudeste 2.4 -- -- 97
2019-01-30 08:00:00 4.1 3 Sur 6 Este 2.2 -- -- 97
2019-01-30 07:00:00 4.1 3 Sur 8 Sudeste 2.4 -- -- 95
2019-01-30 06:00:00 4.6 3 Sur 18 Sudoeste 5 -- -- 93
2019-01-30 05:00:00 5.2 10 Oeste 23 Oeste 1.4 -- -- 91
2019-01-30 04:00:00 5.4 7 Oeste 24 Sudoeste 1.2 -- -- 91
2019-01-30 03:00:00 5.3 4 Sudeste 24 Oeste 0.8 -- -- 93
2019-01-30 02:00:00 5.3 7 Oeste 27 Oeste 2.8 -- -- 91
2019-01-30 01:00:00 6.8 6 Oeste 34 Oeste 0 -- -- 75
2019-01-30 00:00:00 6.7 15 Noroeste 39 Sur 0 -- -- 79
2019-01-29 23:00:00 6 14 Noroeste 46 Oeste 1.2 -- -- 85
2019-01-29 22:00:00 7.2 21 Noroeste 45 Oeste 1 -- -- 80
2019-01-29 21:00:00 7.4 17 Noroeste 59 Noroeste 0.6 -- -- 80
2019-01-29 20:00:00 7.7 10 Oeste 55 Oeste 0.4 -- -- 84
2019-01-29 19:00:00 8.2 13 Oeste 46 Oeste 0.2 -- -- 81
2019-01-29 18:00:00 8.3 17 Noroeste 46 Oeste 1 -- -- 82
2019-01-29 17:00:00 8.9 21 Oeste 65 Sudoeste 2 -- -- 79
2019-01-29 16:00:00 9.6 8 Noroeste 38 Oeste 1.4 -- -- 85
2019-01-29 15:00:00 8.7 11 Noroeste 24 Oeste 2.4 -- -- 87
2019-01-29 14:00:00 8.6 6 Noroeste 26 Sudoeste 1.2 -- -- 82
2019-01-29 13:00:00 8.6 4 Nordeste 17 Nordeste 0.2 -- -- 83
2019-01-29 12:00:00 7.9 3 Sur 9 Oeste 0 -- -- 86
2019-01-29 11:00:00 6.9 4 Sur 10 Este 0.4 -- -- 93
2019-01-29 10:00:00 6.3 3 Sur 11 Sudeste 0.2 -- -- 98
2019-01-29 09:00:00 6.2 2 Oeste 4 Sudoeste 0 -- -- 97
2019-01-29 08:00:00 6.3 2 Sudoeste 7 Sudeste 0 -- -- 97
2019-01-29 07:00:00 6.4 0 Calma 6 Sudeste 0 -- -- 97
2019-01-29 06:00:00 6.5 2 Sudeste 6 Sudeste 0.2 -- -- 96
2019-01-29 05:00:00 6.5 3 Sudeste 7 Oeste 0.4 -- -- 96
2019-01-29 04:00:00 7 5 Sudoeste 10 Sudoeste 0.4 -- -- 90
2019-01-29 03:00:00 6.9 7 Oeste 14 Oeste 0.8 -- -- 93
2019-01-29 02:00:00 7.1 3 Sudeste 26 Sudoeste 0.4 -- -- 91
2019-01-29 01:00:00 7.3 8 Oeste 20 Sudoeste 1.6 -- -- 91
2019-01-29 00:00:00 7.5 13 Oeste 28 Noroeste 0.2 -- -- 86
2019-01-28 23:00:00 7.4 11 Oeste 30 Oeste 2.2 -- -- 85
2019-01-28 22:00:00 7.7 3 Noroeste 28 Oeste 0.2 -- -- 86
2019-01-28 21:00:00 8.3 12 Oeste 38 Oeste 0.8 -- -- 82
2019-01-28 20:00:00 8.6 15 Oeste 42 Oeste 0.2 -- -- 75
2019-01-28 19:00:00 8.1 14 Oeste 50 Oeste 2 -- -- 86
2019-01-28 18:00:00 8.5 14 Noroeste 41 Oeste 1.6 -- -- 81
2019-01-28 17:00:00 9.9 19 Oeste 54 Oeste 0.4 -- -- 69
2019-01-28 16:00:00 9.5 24 Noroeste 50 Noroeste 0.4 -- -- 72
2019-01-28 15:00:00 10.2 21 Oeste 50 Noroeste 0 -- -- 70
2019-01-28 14:00:00 9.9 19 Noroeste 63 Oeste 0.4 -- -- 74
2019-01-28 13:00:00 9 12 Oeste 41 Oeste 1.8 -- -- 82
2019-01-28 12:00:00 9.5 21 Noroeste 54 Noroeste 2.2 -- -- 75
2019-01-28 11:00:00 9.4 17 Noroeste 55 Oeste 2 -- -- 81
2019-01-28 10:00:00 9.2 19 Oeste 53 Oeste 2.2 -- -- 81
2019-01-28 09:00:00 8.9 20 Noroeste 52 Noroeste 3.2 -- -- 86
2019-01-28 08:00:00 9.1 25 Noroeste 57 Oeste 3.2 -- -- 85
2019-01-28 07:00:00 9.5 18 Noroeste 45 Noroeste 0.6 -- -- 83
2019-01-28 06:00:00 9.1 13 Oeste 36 Noroeste 0.4 -- -- 87
2019-01-28 05:00:00 7.1 6 Oeste 18 Noroeste 1.2 -- -- 95
2019-01-28 04:00:00 6.4 5 Sudeste 13 Sudoeste 1.2 -- -- 94
2019-01-28 03:00:00 6.7 4 Oeste 19 Oeste 0.4 -- -- 89
2019-01-28 02:00:00 6.7 5 Oeste 25 Oeste 0.4 -- -- 88
2019-01-28 01:00:00 6.2 9 Oeste 44 Oeste 2.4 -- -- 91
2019-01-28 00:00:00 6.5 6 Oeste 35 Noroeste 2 -- -- 88
2019-01-27 23:00:00 6.6 7 Oeste 27 Sudoeste 2.6 -- -- 90
2019-01-27 22:00:00 7.1 17 Oeste 31 Noroeste 1.6 -- -- 84
2019-01-27 21:00:00 7.6 11 Oeste 27 Noroeste 0.4 -- -- 78
2019-01-27 20:00:00 8.2 9 Oeste 34 Sudoeste 0 -- -- 72
2019-01-27 19:00:00 8 12 Oeste 37 Sudoeste 0 -- -- 74
2019-01-27 18:00:00 7.6 14 Oeste 45 Noroeste 1.6 -- -- 79
2019-01-27 17:00:00 8.4 19 Noroeste 37 Noroeste 0 -- -- 72
2019-01-27 16:00:00 7.7 18 Noroeste 45 Oeste 1 -- -- 80
2019-01-27 15:00:00 6.9 12 Oeste 42 Oeste 2 -- -- 87
2019-01-27 14:00:00 7.3 25 Noroeste 50 Oeste 1.2 -- -- 82
2019-01-27 13:00:00 8.4 21 Noroeste 42 Noroeste 0.4 -- -- 77
2019-01-27 12:00:00 7.2 8 Oeste 25 Sudoeste 2.2 -- -- 91
2019-01-27 11:00:00 7.3 7 Oeste 33 Noroeste 1.4 -- -- 86
2019-01-27 10:00:00 7.5 12 Noroeste 37 Noroeste 0.8 -- -- 82
2019-01-27 09:00:00 8 14 Oeste 39 Oeste 0.4 -- -- 79
2019-01-27 08:00:00 8 6 Sudoeste 39 Oeste 0.4 -- -- 75
2019-01-27 07:00:00 8.8 15 Oeste 58 Oeste 0.4 -- -- 72
2019-01-27 06:00:00 8.9 13 Oeste 49 Oeste 0.4 -- -- 81
2019-01-27 05:00:00 8.4 9 Oeste 27 Oeste 0.4 -- -- 99
2019-01-27 04:00:00 5.3 4 Sur 20 Sudoeste 0 -- -- 100
2019-01-27 03:00:00 4.6 2 Este 6 Sudeste 0 -- -- 99
2019-01-27 02:00:00 4.7 2 Sudoeste 10 Este 0 -- -- 99
2019-01-27 01:00:00 5.1 5 Este 8 Sudeste 0 -- -- 98
2019-01-27 00:00:00 5 3 Oeste 6 Sudoeste 0 -- -- 99
2019-01-26 23:00:00 5.2 0 Calma 5 Noroeste 0 -- -- 97
2019-01-26 22:00:00 5.8 2 Sur 7 Oeste 0 -- -- 95
2019-01-26 21:00:00 6.7 3 Oeste 6 Oeste 0 -- -- 93
2019-01-26 20:00:00 8.1 3 Sudoeste 9 Norte 0 -- -- 87
2019-01-26 19:00:00 9.2 3 Norte 13 Norte 0 -- -- 84
2019-01-26 18:00:00 10.5 6 Noroeste 15 Norte 0 -- -- 78
2019-01-26 17:00:00 12.3 2 Sudoeste 5 Sudeste 0 -- -- 74
2019-01-26 16:00:00 13.4 4 Sudeste 6 Sudeste 0 -- -- 66
2019-01-26 15:00:00 13.3 3 Sudeste 6 Sudeste 0 -- -- 67
2019-01-26 14:00:00 11.9 2 Noroeste 7 Noroeste 0 -- -- 72
2019-01-26 13:00:00 11.2 4 Noroeste 9 Noroeste 0 -- -- 77
2019-01-26 12:00:00 10 0 Calma 4 Este 0 -- -- 92
2019-01-26 11:00:00 9.2 0 Calma 3 Oeste 0 -- -- 99
2019-01-26 10:00:00 8.4 0 Calma 4 Norte 0 -- -- 99
2019-01-26 09:00:00 8 3 Sudeste 4 Sudeste 0 -- -- 99
2019-01-26 08:00:00 8 0 Calma 4 Sur 0 -- -- 99
2019-01-26 07:00:00 8.1 0 Calma 4 Sudeste 0 -- -- 99
2019-01-26 06:00:00 8.3 2 Este 3 Este 0 -- -- 99
2019-01-26 05:00:00 8.4 0 Calma 4 Sudoeste 0 -- -- 98
2019-01-26 04:00:00 8.5 0 Calma 4 Oeste 0 -- -- 98
2019-01-26 03:00:00 8.7 3 Sudoeste 5 Sudoeste 0.2 -- -- 97
2019-01-26 02:00:00 8.9 0 Calma 6 Oeste 0 -- -- 97
2019-01-26 01:00:00 9.1 5 Sudoeste 9 Oeste 0 -- -- 96
2019-01-26 00:00:00 9.2 3 Sudeste 15 Oeste 0.4 -- -- 97
2019-01-25 23:00:00 9.2 7 Oeste 15 Sudoeste 0 -- -- 97
2019-01-25 22:00:00 9.1 5 Oeste 13 Sudoeste 0.6 -- -- 97
2019-01-25 21:00:00 9.3 4 Noroeste 13 Oeste 0.6 -- -- 96
2019-01-25 20:00:00 9.1 3 Norte 15 Sudoeste 0.6 -- -- 97
2019-01-25 19:00:00 9.4 5 Oeste 28 Noroeste 0.2 -- -- 94
2019-01-25 18:00:00 10 9 Oeste 31 Sudoeste 0 -- -- 88
2019-01-25 17:00:00 10.1 8 Oeste 27 Sudoeste 0 -- -- 89
2019-01-25 16:00:00 10 6 Noroeste 23 Noroeste 0.2 -- -- 92
2019-01-25 15:00:00 10.4 9 Oeste 33 Sudoeste 0 -- -- 89
2019-01-25 14:00:00 10.1 5 Noroeste 17 Oeste 0.6 -- -- 94
2019-01-25 13:00:00 10.3 8 Noroeste 25 Noroeste 0.2 -- -- 93
2019-01-25 12:00:00 10.1 7 Noroeste 15 Noroeste 1.2 -- -- 94
2019-01-25 11:00:00 9.6 6 Noroeste 26 Noroeste 0.8 -- -- 96
2019-01-25 10:00:00 9.4 7 Oeste 32 Oeste 0.6 -- -- 94
2019-01-25 09:00:00 9.3 5 Noroeste 20 Norte 1.8 -- -- 97
2019-01-25 08:00:00 9.4 6 Noroeste 21 Nordeste 2 -- -- 98
2019-01-25 07:00:00 9.4 7 Norte 21 Noroeste 2.4 -- -- 97
2019-01-25 06:00:00 9.4 6 Noroeste 26 Oeste 0.6 -- -- 95
2019-01-25 05:00:00 9.4 9 Noroeste 37 Noroeste 2 -- -- 95
2019-01-25 04:00:00 9.2 10 Noroeste 28 Oeste 2.8 -- -- 99
2019-01-25 03:00:00 7.8 10 Noroeste 21 Sudoeste 1.2 -- -- 100
2019-01-25 02:00:00 5.8 4 Oeste 8 Sudoeste 0.4 -- -- 100
2019-01-25 01:00:00 5.7 0 Calma 6 Sudeste 0 -- -- 100
2019-01-25 00:00:00 5.6 2 Este 5 Oeste 0.2 -- -- 99
2019-01-24 23:00:00 5.6 0 Calma 4 Este 1 -- -- 99
2019-01-24 22:00:00 5.6 0 Calma 6 Noroeste 1.6 -- -- 99
2019-01-24 21:00:00 5.6 0 Calma 2 Oeste 0.8 -- -- 99
2019-01-24 20:00:00 5.6 0 Calma 4 Sudoeste 0.4 -- -- 99
2019-01-24 19:00:00 5.6 4 Sudoeste 7 Oeste 0.6 -- -- 99
2019-01-24 18:00:00 5.7 0 Calma 4 Este 1 -- -- 98
2019-01-24 17:00:00 5.7 2 Este 4 Este 1.2 -- -- 98
2019-01-24 16:00:00 5.7 2 Este 5 Sudeste 0.6 -- -- 97
2019-01-24 15:00:00 5.4 0 Calma 4 Sudeste 0.8 -- -- 97
2019-01-24 14:00:00 5 0 Calma 4 Sudoeste 1 -- -- 96
2019-01-24 13:00:00 5 0 Calma 4 Este 0.2 -- -- 97
2019-01-24 12:00:00 4.8 0 Calma 4 Oeste 0 -- -- 97
2019-01-24 11:00:00 4.5 0 Calma 8 Sudeste 0.6 -- -- 96
2019-01-24 10:00:00 4.7 5 Sudeste 13 Este 1.6 -- -- 96
2019-01-24 09:00:00 5.3 7 Este 15 Sudeste 3.2 -- -- 96
2019-01-24 08:00:00 5.8 4 Nordeste 16 Este 3.8 -- -- 97
2019-01-24 07:00:00 6.2 6 Norte 25 Sudoeste 4 -- -- 91
2019-01-24 06:00:00 6.1 9 Norte 32 Norte 4.4 -- -- 92
2019-01-24 05:00:00 6.3 6 Norte 34 Sudoeste 5.2 -- -- 92
2019-01-24 04:00:00 6.2 9 Norte 39 Este 4.2 -- -- 91
2019-01-24 03:00:00 6.1 8 Nordeste 46 Oeste 5.4 -- -- 94
2019-01-24 02:00:00 6.5 12 Norte 32 Noroeste 6.2 -- -- 87
2019-01-24 01:00:00 6.7 9 Noroeste 35 Nordeste 5.8 -- -- 89
2019-01-24 00:00:00 6.9 9 Norte 28 Norte 5.4 -- -- 91
2019-01-23 23:00:00 7.5 13 Norte 40 Oeste 4.8 -- -- 87
2019-01-23 22:00:00 7.7 10 Norte 39 Sudoeste 2.6 -- -- 90
2019-01-23 21:00:00 7.8 14 Noroeste 41 Oeste 7.4 -- -- 91
2019-01-23 20:00:00 8.1 15 Noroeste 44 Noroeste 2.6 -- -- 86
2019-01-23 19:00:00 8.4 17 Oeste 42 Sudoeste 6 -- -- 85
2019-01-23 18:00:00 8.2 14 Noroeste 46 Oeste 2.8 -- -- 86
2019-01-23 17:00:00 8.3 16 Noroeste 37 Sudoeste 2.8 -- -- 87
2019-01-23 16:00:00 8.2 13 Oeste 42 Oeste 1.6 -- -- 87
2019-01-23 15:00:00 8 8 Noroeste 40 Sudoeste 4.2 -- -- 93
2019-01-23 14:00:00 8.3 12 Noroeste 42 Oeste 4.2 -- -- 91
2019-01-23 13:00:00 8.6 11 Noroeste 48 Noroeste 3.2 -- -- 84
2019-01-23 12:00:00 9 15 Oeste 44 Oeste 1.8 -- -- 87
2019-01-23 11:00:00 8.6 13 Oeste 51 Oeste 4.6 -- -- 90
2019-01-23 10:00:00 9.1 15 Noroeste 44 Noroeste 1.4 -- -- 86
2019-01-23 09:00:00 9.4 19 Oeste 55 Noroeste 3.8 -- -- 88
2019-01-23 08:00:00 10.4 22 Noroeste 62 Noroeste 1 -- -- 84
2019-01-23 07:00:00 9.5 19 Noroeste 45 Oeste 3 -- -- 95
2019-01-23 06:00:00 5.9 4 Sudeste 8 Sudeste 3.4 -- -- 99
2019-01-23 05:00:00 5.9 3 Oeste 10 Sudoeste 3.8 -- -- 99
2019-01-23 04:00:00 5.9 0 Calma 6 Este 3.6 -- -- 98
2019-01-23 03:00:00 6 3 Sudoeste 6 Oeste 1.4 -- -- 98
2019-01-23 02:00:00 5.6 3 Sudeste 5 Sudoeste 1 -- -- 98
2019-01-23 01:00:00 5.3 2 Sudeste 10 Sudoeste 0.6 -- -- 98
2019-01-23 00:00:00 5.1 3 Sur 8 Sudoeste 2 -- -- 97
2019-01-22 23:00:00 4.8 3 Sudeste 6 Sudeste 1.2 -- -- 96
2019-01-22 22:00:00 4.9 2 Sudeste 11 Oeste 3.4 -- -- 94
2019-01-22 21:00:00 5.2 4 Sudoeste 11 Oeste 1.8 -- -- 91
2019-01-22 20:00:00 5.7 0 Calma 12 Oeste 2.2 -- -- 94
2019-01-22 19:00:00 6.2 3 Sudoeste 10 Oeste 1 -- -- 91
2019-01-22 18:00:00 6.5 4 Oeste 16 Sudoeste 0.2 -- -- 90
2019-01-22 17:00:00 6.5 5 Oeste 20 Oeste 0 -- -- 90
2019-01-22 16:00:00 6.2 9 Sudoeste 28 Oeste 1.8 -- -- 92
2019-01-22 15:00:00 6.2 8 Oeste 33 Sudoeste 2.6 -- -- 93
2019-01-22 14:00:00 5.7 4 Noroeste 11 Sudeste 3.8 -- -- 96
2019-01-22 13:00:00 5.9 2 Sudeste 18 Sur 3.2 -- -- 93
2019-01-22 12:00:00 6.1 4 Sudoeste 20 Noroeste 1.8 -- -- 90
2019-01-22 11:00:00 5.5 3 Sudeste 8 Norte 0.4 -- -- 93
2019-01-22 10:00:00 4.8 5 Sudeste 9 Este 0 -- -- 95
2019-01-22 09:00:00 3.8 3 Sudeste 9 Sudeste 0.2 -- -- 97
2019-01-22 08:00:00 3.3 4 Este 6 Este 0 -- -- 96
2019-01-22 07:00:00 3.1 3 Sudoeste 5 Este 0 -- -- 96
2019-01-22 06:00:00 3 3 Sudeste 8 Sudeste 0 -- -- 94
2019-01-22 05:00:00 2.7 0 Calma 6 Este 0 -- -- 95
2019-01-22 04:00:00 3 0 Calma 6 Oeste 0 -- -- 95
2019-01-22 03:00:00 2.9 0 Calma 10 Sudoeste 0 -- -- 94
2019-01-22 02:00:00 3.4 4 Sudoeste 6 Sudeste 0 -- -- 92
2019-01-22 01:00:00 4 0 Calma 4 Este 0 -- -- 92
2019-01-22 00:00:00 4.3 0 Calma 6 Oeste 0 -- -- 91
2019-01-21 23:00:00 4.7 0 Calma 15 Oeste 0 -- -- 86
2019-01-21 22:00:00 5.5 10 Sudoeste 20 Oeste 0 -- -- 81
2019-01-21 21:00:00 5.9 4 Oeste 12 Oeste 0 -- -- 78
2019-01-21 20:00:00 5.7 8 Sudoeste 13 Sudoeste 0 -- -- 77
2019-01-21 19:00:00 5.7 9 Sudoeste 15 Oeste 0 -- -- 76
2019-01-21 18:00:00 7.1 6 Oeste 17 Norte 0 -- -- 68
2019-01-21 17:00:00 7.8 7 Norte 21 Oeste 0 -- -- 71
2019-01-21 16:00:00 7.7 7 Noroeste 14 Noroeste 0 -- -- 70
2019-01-21 15:00:00 7.8 7 Noroeste 20 Oeste 0 -- -- 71
2019-01-21 14:00:00 7.2 2 Norte 12 Noroeste 0.2 -- -- 85
2019-01-21 13:00:00 7 3 Este 21 Noroeste 0 -- -- 82
2019-01-21 12:00:00 7.4 8 Noroeste 29 Oeste 0 -- -- 73
2019-01-21 11:00:00 7.2 8 Noroeste 27 Oeste 0 -- -- 75
2019-01-21 10:00:00 7.3 9 Oeste 25 Oeste 0 -- -- 75
2019-01-21 09:00:00 7.3 6 Oeste 25 Noroeste 0 -- -- 78
2019-01-21 08:00:00 7 9 Oeste 23 Noroeste 0 -- -- 81
2019-01-21 07:00:00 6.8 3 Noroeste 20 Oeste 0.6 -- -- 83
2019-01-21 06:00:00 6.9 6 Norte 18 Este 0 -- -- 92
2019-01-21 05:00:00 6.1 4 Sur 13 Sudoeste 4.6 -- -- 94
2019-01-21 04:00:00 7 5 Norte 14 Nordeste 0 -- -- 93
2019-01-21 03:00:00 6.2 5 Sudoeste 17 Noroeste 0 -- -- 97
2019-01-21 02:00:00 6.4 3 Sudeste 12 Sudoeste 3.2 -- -- 95
2019-01-21 01:00:00 6.6 6 Oeste 12 Sur 1.2 -- -- 94
2019-01-21 00:00:00 6.7 4 Sudeste 12 Norte 2.6 -- -- 90
2019-01-20 23:00:00 7.4 0 Calma 20 Noroeste 1 -- -- 90
2019-01-20 22:00:00 7.9 4 Nordeste 24 Sudoeste 1.4 -- -- 86
2019-01-20 21:00:00 8.4 4 Nordeste 19 Oeste 0 -- -- 83
2019-01-20 20:00:00 8.6 8 Oeste 21 Oeste 0 -- -- 79
2019-01-20 19:00:00 8.7 10 Noroeste 40 Noroeste 0.8 -- -- 80
2019-01-20 18:00:00 8.6 5 Oeste 24 Oeste 1.2 -- -- 85
2019-01-20 17:00:00 9.3 9 Oeste 35 Oeste 0 -- -- 83
2019-01-20 16:00:00 9.9 4 Norte 25 Sudoeste 0.8 -- -- 82
2019-01-20 15:00:00 9.3 5 Noroeste 24 Oeste 0 -- -- 78
2019-01-20 14:00:00 8.8 4 Noroeste 31 Oeste 2.6 -- -- 85
2019-01-20 13:00:00 8.9 8 Oeste 18 Sudoeste 0.2 -- -- 87
2019-01-20 12:00:00 8.1 8 Oeste 19 Sudoeste 2 -- -- 93
2019-01-20 11:00:00 7.8 10 Oeste 23 Sudoeste 1.6 -- -- 91
2019-01-20 10:00:00 6.9 4 Sur 19 Sudoeste 3.2 -- -- 94
2019-01-20 09:00:00 6.2 4 Sur 26 Oeste 0.6 -- -- 96
2019-01-20 08:00:00 6.2 5 Oeste 11 Oeste 0.6 -- -- 97
2019-01-20 07:00:00 6.2 0 Calma 5 Oeste 1.2 -- -- 96
2019-01-20 06:00:00 6.3 0 Calma 4 Sudoeste 0 -- -- 94
2019-01-20 05:00:00 6.4 2 Oeste 4 Oeste 0 -- -- 94
2019-01-20 04:00:00 6.6 0 Calma 3 Sudoeste 0 -- -- 93
2019-01-20 03:00:00 6.7 0 Calma 4 Este 0 -- -- 92
2019-01-20 02:00:00 6.9 0 Calma 3 Sur 0.2 -- -- 90
2019-01-20 01:00:00 7.2 3 Sudoeste 9 Este 0 -- -- 86
2019-01-20 00:00:00 7.6 2 Sur 12 Sudeste 0 -- -- 84
2019-01-19 23:00:00 8.1 4 Sudeste 13 Sudeste 0 -- -- 79
2019-01-19 22:00:00 8.5 4 Sudoeste 13 Sur 0 -- -- 76
2019-01-19 21:00:00 9 4 Sur 17 Sudoeste 0 -- -- 70
2019-01-19 20:00:00 9 4 Sur 12 Oeste 0 -- -- 68
2019-01-19 19:00:00 9 4 Sudoeste 15 Sudoeste 0 -- -- 68
2019-01-19 18:00:00 9.7 3 Sur 15 Sudoeste 0 -- -- 68
2019-01-19 17:00:00 10.4 6 Sudoeste 21 Sudoeste 0 -- -- 62
2019-01-19 16:00:00 10.4 5 Oeste 13 Sudoeste 0 -- -- 66
2019-01-19 15:00:00 10.6 4 Sur 21 Oeste 0 -- -- 62
2019-01-19 14:00:00 10.2 6 Sudoeste 21 Sudoeste 0 -- -- 63
2019-01-19 13:00:00 10.2 3 Sudoeste 14 Este 0 -- -- 65
2019-01-19 12:00:00 9.7 3 Norte 6 Sudoeste 0 -- -- 74
2019-01-19 11:00:00 7.4 0 Calma 5 Sudeste 0 -- -- 93
2019-01-19 10:00:00 5 3 Sudoeste 8 Este 0 -- -- 99
2019-01-19 09:00:00 3.5 3 Sur 8 Sudeste 0 -- -- 98
2019-01-19 08:00:00 3.9 0 Calma 6 Sudeste 0 -- -- 97
2019-01-19 07:00:00 4.4 4 Sudeste 7 Sudeste 0 -- -- 97
2019-01-19 06:00:00 4.8 4 Este 10 Sudeste 0 -- -- 96
2019-01-19 05:00:00 5.6 2 Sur 7 Sudeste 0.2 -- -- 94
2019-01-19 04:00:00 5.7 4 Sur 10 Sudeste 0 -- -- 96
2019-01-19 03:00:00 5.6 4 Sur 6 Sudeste 0 -- -- 96
2019-01-19 02:00:00 5.6 5 Sudeste 9 Sudeste 0.4 -- -- 96
2019-01-19 01:00:00 5.6 4 Sudeste 8 Sudeste 1.2 -- -- 94
2019-01-19 00:00:00 5.8 2 Sudeste 9 Sur 0.6 -- -- 91